Time;durP1;ratioP1;P1;durP2;ratioP2;P2;SDS_P1;SDS_P2;PMS_P1;PMS_P2;Temp;Humidity;BMP_temperature;BMP_pressure;BME280_temperature;BME280_humidity;BME280_pressure;Samples;Min_cycle;Max_cycle;Signal;HPM_P1;HPM_P2
2022/10/30 00:00:52;;;;;;;14.20;12.98;;;12.00;99.90;;;;;;5112138;28;20250;-85
2022/10/30 00:03:21;;;;;;;15.35;13.85;;;12.00;99.90;;;;;;5112306;28;20230;-85
2022/10/30 00:05:51;;;;;;;16.95;15.38;;;12.00;99.90;;;;;;5111830;28;20215;-85
2022/10/30 00:08:25;;;;;;;26.40;15.68;;;12.00;99.90;;;;;;5112118;28;20222;-85
2022/10/30 00:10:53;;;;;;;15.68;14.18;;;12.00;99.90;;;;;;5112117;28;20228;-85
2022/10/30 00:13:22;;;;;;;17.67;15.73;;;12.10;99.90;;;;;;5111639;28;20212;-85
2022/10/30 00:15:53;;;;;;;16.90;15.02;;;12.00;99.90;;;;;;5111714;28;20237;-85
2022/10/30 00:18:22;;;;;;;18.85;16.42;;;12.10;99.90;;;;;;5111697;28;20214;-86
2022/10/30 00:20:50;;;;;;;17.67;15.88;;;12.10;99.90;;;;;;5112034;28;20227;-86
2022/10/30 00:23:20;;;;;;;18.38;15.35;;;12.00;99.90;;;;;;5112109;28;20225;-86
2022/10/30 00:25:48;;;;;;;24.08;17.35;;;12.10;99.90;;;;;;5111064;28;20211;-86
2022/10/30 00:28:16;;;;;;;22.02;18.08;;;12.10;99.90;;;;;;5111870;28;20218;-86
2022/10/30 00:30:44;;;;;;;23.75;18.80;;;12.00;99.90;;;;;;5111256;28;20235;-86
2022/10/30 00:33:14;;;;;;;19.33;17.35;;;12.00;99.90;;;;;;5111570;28;20218;-87
2022/10/30 00:35:48;;;;;;;20.33;17.95;;;12.00;99.90;;;;;;5111504;28;20235;-87
2022/10/30 00:38:17;;;;;;;20.23;17.15;;;12.00;99.90;;;;;;5111674;28;20203;-87
2022/10/30 00:40:45;;;;;;;17.58;15.80;;;12.00;99.90;;;;;;5110700;28;20219;-87
2022/10/30 00:43:31;;;;;;;17.50;15.55;;;12.00;99.90;;;;;;5111769;28;20208;-87
2022/10/30 00:46:03;;;;;;;16.23;14.60;;;11.90;99.90;;;;;;5111353;28;20370;-86
2022/10/30 00:48:34;;;;;;;15.60;13.98;;;12.00;99.90;;;;;;5111161;28;20219;-87
2022/10/30 00:51:03;;;;;;;17.83;15.80;;;12.00;99.90;;;;;;5110732;28;20254;-87
2022/10/30 00:53:32;;;;;;;16.80;13.75;;;12.00;99.90;;;;;;5111548;28;20216;-87
2022/10/30 00:56:04;;;;;;;15.02;13.60;;;12.00;99.90;;;;;;5111009;28;20228;-87
2022/10/30 00:58:38;;;;;;;17.65;15.40;;;11.90;99.90;;;;;;5110418;28;20208;-87
2022/10/30 01:01:13;;;;;;;15.80;14.25;;;11.90;99.90;;;;;;5111264;28;20229;-87
2022/10/30 01:03:44;;;;;;;16.67;14.75;;;11.90;99.90;;;;;;5111309;28;20203;-86
2022/10/30 01:06:15;;;;;;;17.23;15.32;;;11.90;99.90;;;;;;5111254;28;20207;-85
2022/10/30 01:08:45;;;;;;;15.23;13.82;;;11.90;99.90;;;;;;5111062;28;20214;-86
2022/10/30 01:11:13;;;;;;;14.52;13.10;;;11.90;99.90;;;;;;5113410;28;20234;-86
2022/10/30 01:13:46;;;;;;;13.05;11.85;;;11.90;99.90;;;;;;5113224;28;20264;-86
2022/10/30 01:16:35;;;;;;;14.00;12.68;;;11.90;99.90;;;;;;5113299;28;20224;-84
2022/10/30 01:19:18;;;;;;;13.40;12.00;;;11.80;99.90;;;;;;5112878;28;20207;-84
2022/10/30 01:21:56;;;;;;;14.90;13.50;;;11.80;99.90;;;;;;5113127;28;20228;-85
2022/10/30 01:24:36;;;;;;;13.68;12.40;;;11.80;99.90;;;;;;5113033;28;20207;-87
2022/10/30 01:27:21;;;;;;;13.40;12.07;;;11.90;99.90;;;;;;5113013;28;20210;-86
2022/10/30 01:30:02;;;;;;;13.27;12.02;;;11.80;99.90;;;;;;5112934;28;20214;-84
2022/10/30 01:32:43;;;;;;;12.40;11.27;;;11.70;99.90;;;;;;5112960;28;20215;-86
2022/10/30 01:35:18;;;;;;;12.85;11.27;;;11.70;99.90;;;;;;5113145;28;20219;-84
2022/10/30 01:37:52;;;;;;;12.73;11.05;;;11.70;99.90;;;;;;5113176;28;20203;-87
2022/10/30 01:40:21;;;;;;;13.73;12.45;;;11.70;99.90;;;;;;5112800;28;20227;-85
2022/10/30 01:42:51;;;;;;;13.05;11.77;;;11.70;99.90;;;;;;5113087;28;20214;-86
2022/10/30 01:45:30;;;;;;;16.25;10.43;;;11.70;99.90;;;;;;5112848;28;20206;-85
2022/10/30 01:48:21;;;;;;;10.32;9.50;;;11.70;99.90;;;;;;5113134;28;20213;-86
2022/10/30 01:50:59;;;;;;;12.20;9.85;;;11.60;99.90;;;;;;5113028;28;20231;-86
2022/10/30 01:53:41;;;;;;;10.75;9.75;;;11.60;99.90;;;;;;5115540;28;20207;-86
2022/10/30 01:56:20;;;;;;;9.32;8.52;;;11.50;99.90;;;;;;5116566;28;20219;-86
2022/10/30 01:58:55;;;;;;;9.48;8.68;;;11.50;99.90;;;;;;5116667;28;20202;-85
2022/10/30 02:01:24;;;;;;;10.60;9.55;;;11.50;99.90;;;;;;5117340;28;20234;-85
2022/10/30 02:03:53;;;;;;;9.65;8.85;;;11.50;99.90;;;;;;5116962;28;20204;-85
2022/10/30 02:06:23;;;;;;;9.85;9.05;;;11.50;99.90;;;;;;5116851;28;20210;-85
2022/10/30 02:08:51;;;;;;;10.18;9.13;;;11.50;99.90;;;;;;5116760;28;20204;-85
2022/10/30 02:11:19;;;;;;;9.77;8.88;;;11.50;99.90;;;;;;5116591;28;20230;-85
2022/10/30 02:13:49;;;;;;;9.88;8.90;;;11.50;99.90;;;;;;5116485;28;20210;-85
2022/10/30 02:16:17;;;;;;;10.93;9.77;;;11.50;99.90;;;;;;5116473;28;20228;-86
2022/10/30 02:18:46;;;;;;;10.70;9.70;;;11.60;99.90;;;;;;5116085;28;20200;-85
2022/10/30 02:21:16;;;;;;;9.65;7.78;;;11.60;99.90;;;;;;5116558;28;20310;-85
2022/10/30 02:23:44;;;;;;;8.95;8.25;;;11.60;99.90;;;;;;5116709;28;20200;-85
2022/10/30 02:26:12;;;;;;;11.25;9.85;;;11.60;99.90;;;;;;5116434;28;20207;-85
2022/10/30 02:28:40;;;;;;;12.70;8.95;;;11.60;99.90;;;;;;5115936;28;20204;-85
2022/10/30 02:31:08;;;;;;;10.20;9.20;;;11.70;99.90;;;;;;5116153;28;20238;-85
2022/10/30 02:33:37;;;;;;;9.93;9.10;;;11.70;99.90;;;;;;5116547;28;20212;-85
2022/10/30 02:36:06;;;;;;;10.55;9.50;;;11.70;99.90;;;;;;5116208;28;20444;-85
2022/10/30 02:38:35;;;;;;;9.93;9.15;;;11.70;99.90;;;;;;5115606;28;20215;-85
2022/10/30 02:41:04;;;;;;;11.05;9.95;;;11.70;99.90;;;;;;5115989;28;20227;-85
2022/10/30 02:43:32;;;;;;;9.93;8.95;;;11.70;99.90;;;;;;5116152;28;20207;-85
2022/10/30 02:46:00;;;;;;;10.82;9.25;;;11.70;99.90;;;;;;5116119;28;20206;-84
2022/10/30 02:48:31;;;;;;;10.57;9.57;;;11.70;99.90;;;;;;5115809;28;20214;-85
2022/10/30 02:51:00;;;;;;;10.38;9.43;;;11.70;99.90;;;;;;5115720;28;20219;-86
2022/10/30 02:53:28;;;;;;;8.73;8.02;;;11.70;99.90;;;;;;5116276;28;20203;-86
2022/10/30 02:56:04;;;;;;;8.95;8.15;;;11.70;99.90;;;;;;5115474;28;20231;-86
2022/10/30 02:58:32;;;;;;;10.73;9.63;;;11.80;99.90;;;;;;5115241;28;20206;-86
2022/10/30 03:01:06;;;;;;;9.50;8.65;;;11.70;99.90;;;;;;5115768;28;20231;-86
2022/10/30 03:03:34;;;;;;;10.05;8.90;;;11.80;99.90;;;;;;5115350;28;20208;-86
2022/10/30 03:06:04;;;;;;;10.77;9.50;;;11.80;99.90;;;;;;5115725;28;20273;-86
2022/10/30 03:08:32;;;;;;;9.75;8.73;;;11.80;99.90;;;;;;5115337;28;20207;-86
2022/10/30 03:11:04;;;;;;;10.23;9.32;;;11.80;99.90;;;;;;5115491;28;20228;-86
2022/10/30 03:13:33;;;;;;;10.75;9.73;;;11.70;99.90;;;;;;5115717;28;20200;-86
2022/10/30 03:16:02;;;;;;;10.27;9.38;;;11.80;99.90;;;;;;5115293;28;20230;-86
2022/10/30 03:18:31;;;;;;;8.98;8.27;;;11.70;99.90;;;;;;5115208;28;20200;-86
2022/10/30 03:21:00;;;;;;;13.40;10.77;;;11.80;99.90;;;;;;5115464;28;20227;-86
2022/10/30 03:23:29;;;;;;;12.02;9.50;;;11.80;99.90;;;;;;5115244;28;20188;-86
2022/10/30 03:25:59;;;;;;;11.73;10.63;;;11.80;99.90;;;;;;5115419;28;20199;-85
2022/10/30 03:28:30;;;;;;;9.68;8.75;;;11.80;99.90;;;;;;5114688;28;20216;-85
2022/10/30 03:30:59;;;;;;;10.32;9.35;;;11.80;99.90;;;;;;5115408;28;20247;-85
2022/10/30 03:33:27;;;;;;;12.50;9.75;;;11.80;99.90;;;;;;5115771;28;20214;-86
2022/10/30 03:35:56;;;;;;;11.15;10.15;;;11.80;99.90;;;;;;5115110;28;20223;-86
2022/10/30 03:38:24;;;;;;;9.88;8.90;;;11.80;99.90;;;;;;5114380;28;20218;-85
2022/10/30 03:40:53;;;;;;;10.90;9.52;;;11.80;99.90;;;;;;5115128;28;20219;-85
2022/10/30 03:43:21;;;;;;;10.52;8.73;;;11.80;99.90;;;;;;5114984;28;20200;-85
2022/10/30 03:45:53;;;;;;;9.73;8.82;;;11.80;99.90;;;;;;5114785;28;20212;-85
2022/10/30 03:48:23;;;;;;;13.77;9.20;;;11.80;99.90;;;;;;5114676;28;20208;-85
2022/10/30 03:50:53;;;;;;;8.98;8.07;;;11.70;99.90;;;;;;5114772;28;20219;-85
2022/10/30 03:53:22;;;;;;;9.07;8.27;;;11.70;99.90;;;;;;5114582;28;20203;-86
2022/10/30 03:55:51;;;;;;;9.30;8.45;;;11.70;99.90;;;;;;5114461;28;20211;-86
2022/10/30 03:58:19;;;;;;;10.13;9.13;;;11.70;99.90;;;;;;5114553;28;20203;-86
2022/10/30 04:00:47;;;;;;;9.60;8.80;;;11.70;99.90;;;;;;5114651;28;20234;-86
2022/10/30 04:03:17;;;;;;;9.60;7.95;;;11.70;99.90;;;;;;5114686;28;20204;-85
2022/10/30 04:05:45;;;;;;;9.18;8.38;;;11.70;99.90;;;;;;5114619;28;20211;-85
2022/10/30 04:08:14;;;;;;;10.10;9.10;;;11.70;99.90;;;;;;5114283;28;20199;-87
2022/10/30 04:10:43;;;;;;;8.95;8.18;;;11.70;99.90;;;;;;5113856;28;20231;-87
2022/10/30 04:13:13;;;;;;;8.90;8.20;;;11.70;99.90;;;;;;5114527;28;20262;-85
2022/10/30 04:15:42;;;;;;;9.73;8.82;;;11.70;99.90;;;;;;5113492;28;20215;-87
2022/10/30 04:18:12;;;;;;;8.27;7.57;;;11.70;99.90;;;;;;5114531;28;20199;-86
2022/10/30 04:20:41;;;;;;;8.77;7.93;;;11.70;99.90;;;;;;5113662;28;20227;-85
2022/10/30 04:23:14;;;;;;;10.10;9.10;;;11.70;99.90;;;;;;5114132;28;20207;-85
2022/10/30 04:25:42;;;;;;;9.18;8.23;;;11.70;99.90;;;;;;5114100;28;20208;-85
2022/10/30 04:28:11;;;;;;;9.98;9.00;;;11.70;99.90;;;;;;5114278;28;20226;-85
2022/10/30 04:30:39;;;;;;;9.93;9.05;;;11.70;99.90;;;;;;5113361;28;20239;-85
2022/10/30 04:33:11;;;;;;;10.15;9.07;;;11.60;99.90;;;;;;5113991;28;20208;-85
2022/10/30 04:35:41;;;;;;;10.05;9.23;;;11.60;99.90;;;;;;5114025;28;20204;-85
2022/10/30 04:38:11;;;;;;;9.18;8.38;;;11.70;99.90;;;;;;5113677;28;20231;-85
2022/10/30 04:40:43;;;;;;;9.88;8.98;;;11.70;99.90;;;;;;5113225;28;20224;-85
2022/10/30 04:43:12;;;;;;;12.00;8.93;;;11.70;99.90;;;;;;5113752;28;20199;-86
2022/10/30 04:45:41;;;;;;;9.48;8.68;;;11.70;99.90;;;;;;5113749;28;20210;-85
2022/10/30 04:48:12;;;;;;;9.18;8.32;;;11.70;99.90;;;;;;5113486;28;20204;-85
2022/10/30 04:50:42;;;;;;;9.90;9.00;;;11.70;99.90;;;;;;5112977;28;20223;-85
2022/10/30 04:53:13;;;;;;;8.77;8.07;;;11.70;99.90;;;;;;5113951;28;20211;-85
2022/10/30 04:55:42;;;;;;;9.70;8.85;;;11.70;99.90;;;;;;5113537;28;20207;-87
2022/10/30 04:58:11;;;;;;;10.55;9.35;;;11.70;99.90;;;;;;5113095;28;20230;-86
2022/10/30 05:00:39;;;;;;;10.98;9.93;;;11.70;99.90;;;;;;5113113;28;20227;-86
2022/10/30 05:03:07;;;;;;;10.63;9.60;;;11.70;99.90;;;;;;5113448;28;20207;-86
2022/10/30 05:05:35;;;;;;;10.57;9.50;;;11.70;99.90;;;;;;5113826;28;20203;-86
2022/10/30 05:08:05;;;;;;;15.40;10.80;;;11.70;99.90;;;;;;5113384;28;20196;-85
2022/10/30 05:10:34;;;;;;;11.43;10.23;;;11.70;99.90;;;;;;5112984;28;20246;-86
2022/10/30 05:13:02;;;;;;;11.57;10.43;;;11.70;99.90;;;;;;5113379;28;20205;-85
2022/10/30 05:15:30;;;;;;;10.05;9.10;;;11.80;99.90;;;;;;5113207;28;20203;-85
2022/10/30 05:17:58;;;;;;;10.38;9.45;;;11.80;99.90;;;;;;5113576;28;20215;-85
2022/10/30 05:20:27;;;;;;;11.20;10.10;;;11.70;99.90;;;;;;5112773;28;20219;-85
2022/10/30 05:22:56;;;;;;;10.63;9.57;;;11.80;99.90;;;;;;5113119;28;20214;-86
2022/10/30 05:25:27;;;;;;;9.20;8.30;;;11.70;99.90;;;;;;5112942;28;20207;-86
2022/10/30 05:27:58;;;;;;;17.58;8.18;;;11.70;99.90;;;;;;5112867;28;20278;-86
2022/10/30 05:30:27;;;;;;;8.50;7.65;;;11.70;99.90;;;;;;5112803;28;20234;-86
2022/10/30 05:32:59;;;;;;;7.35;6.68;;;11.60;99.90;;;;;;5113234;28;20203;-85
2022/10/30 05:35:29;;;;;;;8.27;7.25;;;11.60;99.90;;;;;;5113274;28;20234;-86
2022/10/30 05:37:57;;;;;;;7.72;7.03;;;11.50;99.90;;;;;;5113280;28;20310;-87
2022/10/30 05:40:27;;;;;;;7.30;6.70;;;11.40;99.90;;;;;;5112726;28;20224;-86
2022/10/30 05:42:55;;;;;;;7.55;6.80;;;11.40;99.90;;;;;;5112754;28;20219;-87
2022/10/30 05:45:24;;;;;;;7.00;6.13;;;11.30;99.90;;;;;;5112970;28;20211;-87
2022/10/30 05:47:56;;;;;;;10.43;7.15;;;11.40;99.90;;;;;;5112969;28;20215;-86
2022/10/30 05:50:25;;;;;;;7.70;7.00;;;11.30;99.90;;;;;;5112293;28;20230;-87
2022/10/30 05:52:56;;;;;;;8.88;7.28;;;11.40;99.90;;;;;;5112778;28;20207;-87
2022/10/30 05:55:26;;;;;;;11.05;7.78;;;11.40;99.90;;;;;;5112746;28;20214;-87
2022/10/30 05:57:57;;;;;;;7.00;6.40;;;11.40;99.90;;;;;;5112709;28;20224;-87
2022/10/30 06:00:27;;;;;;;8.10;6.65;;;11.40;99.90;;;;;;5112401;28;20318;-87
2022/10/30 06:03:00;;;;;;;8.70;7.00;;;11.40;99.90;;;;;;5112916;28;20200;-87
2022/10/30 06:05:31;;;;;;;11.23;7.80;;;11.50;99.90;;;;;;5112697;28;20264;-87
2022/10/30 06:07:59;;;;;;;11.80;8.77;;;11.50;99.90;;;;;;5112611;28;20200;-87
2022/10/30 06:10:29;;;;;;;10.25;9.13;;;11.50;99.90;;;;;;5112435;28;20234;-87
2022/10/30 06:12:59;;;;;;;9.88;8.95;;;11.50;99.90;;;;;;5112669;28;20215;-87
2022/10/30 06:15:29;;;;;;;10.27;9.27;;;11.60;99.90;;;;;;5112784;28;20231;-87
2022/10/30 06:17:58;;;;;;;10.00;9.10;;;11.50;99.90;;;;;;5112278;28;20219;-86
2022/10/30 06:20:29;;;;;;;11.73;10.27;;;11.60;99.90;;;;;;5112190;28;20216;-87
2022/10/30 06:22:59;;;;;;;10.85;9.80;;;11.60;99.90;;;;;;5112635;28;20206;-87
2022/10/30 06:25:30;;;;;;;9.60;8.73;;;11.60;99.90;;;;;;5112779;28;20200;-86
2022/10/30 06:28:01;;;;;;;8.88;7.93;;;11.60;99.90;;;;;;5112861;28;20203;-87
2022/10/30 06:30:29;;;;;;;8.20;7.40;;;11.60;99.90;;;;;;5111882;28;20235;-87
2022/10/30 06:32:58;;;;;;;7.00;6.40;;;11.50;99.90;;;;;;5112749;28;20199;-86
2022/10/30 06:35:27;;;;;;;6.90;6.40;;;11.40;99.90;;;;;;5112888;28;20229;-87
2022/10/30 06:37:58;;;;;;;7.65;6.85;;;11.40;99.90;;;;;;5112609;28;20218;-87
2022/10/30 06:40:29;;;;;;;8.65;6.78;;;11.40;99.90;;;;;;5115663;28;20230;-87
2022/10/30 06:42:58;;;;;;;7.10;6.15;;;11.30;99.90;;;;;;5116036;28;20195;-87
2022/10/30 06:45:27;;;;;;;6.95;6.25;;;11.10;99.90;;;;;;5115982;28;20204;-87
2022/10/30 06:47:55;;;;;;;6.90;6.25;;;11.10;99.90;;;;;;5116118;28;20196;-87
2022/10/30 06:50:24;;;;;;;10.63;7.03;;;11.00;99.90;;;;;;5115941;28;20228;-86
2022/10/30 06:52:54;;;;;;;7.93;7.00;;;11.00;99.90;;;;;;5115904;28;20199;-86
2022/10/30 06:55:22;;;;;;;8.75;7.30;;;11.00;99.90;;;;;;5115644;28;20207;-85
2022/10/30 06:57:56;;;;;;;10.07;7.05;;;11.00;99.90;;;;;;5115568;28;20226;-85
2022/10/30 07:00:25;;;;;;;8.05;6.00;;;11.10;99.90;;;;;;5115332;28;20300;-87
2022/10/30 07:02:57;;;;;;;9.38;6.38;;;11.00;99.90;;;;;;5116121;28;20204;-85
2022/10/30 07:05:27;;;;;;;8.40;6.43;;;11.00;99.90;;;;;;5115738;28;20211;-87
2022/10/30 07:07:57;;;;;;;5.75;5.25;;;10.90;99.90;;;;;;5116049;28;20208;-86
2022/10/30 07:10:25;;;;;;;11.93;6.65;;;11.00;99.90;;;;;;5115335;28;20223;-86
2022/10/30 07:12:57;;;;;;;5.78;5.28;;;10.90;99.90;;;;;;5115451;28;20222;-85
2022/10/30 07:15:26;;;;;;;8.15;7.30;;;10.90;99.90;;;;;;5115892;28;20256;-85
2022/10/30 07:17:56;;;;;;;8.20;7.50;;;10.90;99.90;;;;;;5115513;28;20273;-86
2022/10/30 07:20:27;;;;;;;8.07;7.32;;;10.90;99.90;;;;;;5114934;28;20223;-86
2022/10/30 07:22:55;;;;;;;11.88;7.43;;;11.00;99.90;;;;;;5115631;28;20208;-85
2022/10/30 07:25:24;;;;;;;9.32;7.65;;;10.90;99.90;;;;;;5115156;28;20219;-86
2022/10/30 07:27:54;;;;;;;9.25;7.03;;;10.90;99.90;;;;;;5115461;28;20196;-86
2022/10/30 07:30:26;;;;;;;6.45;5.95;;;11.00;99.90;;;;;;5114698;28;20227;-86
2022/10/30 07:32:58;;;;;;;7.38;6.78;;;11.00;99.90;;;;;;5114942;28;20235;-86
2022/10/30 07:35:28;;;;;;;7.97;7.32;;;11.00;99.90;;;;;;5115217;28;20203;-86
2022/10/30 07:37:56;;;;;;;10.90;8.68;;;11.00;99.90;;;;;;5114960;28;20223;-85
2022/10/30 07:40:25;;;;;;;8.00;7.35;;;11.00;99.90;;;;;;5114793;28;20216;-86
2022/10/30 07:42:56;;;;;;;8.75;7.97;;;11.10;99.90;;;;;;5115214;28;20207;-86
2022/10/30 07:45:27;;;;;;;8.93;8.10;;;11.20;99.90;;;;;;5115027;28;20233;-85
2022/10/30 07:47:55;;;;;;;12.45;9.40;;;11.20;99.90;;;;;;5114989;28;20207;-86
2022/10/30 07:50:24;;;;;;;9.77;8.85;;;11.30;99.90;;;;;;5113989;28;20226;-86
2022/10/30 07:52:53;;;;;;;9.95;8.95;;;11.40;99.90;;;;;;5114870;28;20200;-86
2022/10/30 07:55:21;;;;;;;9.32;8.57;;;11.30;99.90;;;;;;5115004;28;20218;-85
2022/10/30 07:57:49;;;;;;;8.95;8.05;;;11.40;99.90;;;;;;5114328;28;20204;-86
2022/10/30 08:00:18;;;;;;;8.55;7.75;;;11.40;99.90;;;;;;5114442;28;20219;-86
2022/10/30 08:02:51;;;;;;;8.52;7.72;;;11.40;99.90;;;;;;5114576;28;20261;-86
2022/10/30 08:05:19;;;;;;;9.80;8.60;;;11.50;99.90;;;;;;5114847;28;20238;-86
2022/10/30 08:07:54;;;;;;;9.07;8.27;;;11.50;99.90;;;;;;5114520;28;20231;-86
2022/10/30 08:10:22;;;;;;;8.27;7.57;;;11.50;99.90;;;;;;5113926;28;20219;-86
2022/10/30 08:12:51;;;;;;;10.45;8.35;;;11.60;99.90;;;;;;5114437;28;20208;-86
2022/10/30 08:15:19;;;;;;;8.10;7.35;;;11.60;99.90;;;;;;5114313;28;20199;-86
2022/10/30 08:17:49;;;;;;;8.35;7.60;;;11.60;99.90;;;;;;5114345;28;20211;-86
2022/10/30 08:20:20;;;;;;;8.60;7.90;;;11.60;99.90;;;;;;5113418;28;20245;-85
2022/10/30 08:22:49;;;;;;;9.63;8.73;;;11.60;99.90;;;;;;5114212;28;20207;-85
2022/10/30 08:25:19;;;;;;;9.68;8.68;;;11.70;99.90;;;;;;5114358;28;20208;-86
2022/10/30 08:27:53;;;;;;;8.82;8.00;;;11.70;99.90;;;;;;5114082;28;20199;-86
2022/10/30 08:30:23;;;;;;;9.07;8.23;;;11.70;99.90;;;;;;5113839;28;20225;-86
2022/10/30 08:32:51;;;;;;;9.35;8.45;;;11.70;99.90;;;;;;5114426;28;20219;-85
2022/10/30 08:35:21;;;;;;;12.43;9.38;;;11.70;99.90;;;;;;5113971;28;20204;-86
2022/10/30 08:37:51;;;;;;;10.32;8.07;;;11.80;99.90;;;;;;5114031;28;20209;-86
2022/10/30 08:40:19;;;;;;;8.05;7.28;;;11.80;99.90;;;;;;5113186;28;20223;-86
2022/10/30 08:42:51;;;;;;;9.77;8.82;;;11.90;99.90;;;;;;5113751;28;20203;-86
2022/10/30 08:45:20;;;;;;;7.75;7.05;;;11.90;99.90;;;;;;5114283;28;20223;-85
2022/10/30 08:48:02;;;;;;;11.13;8.52;;;11.90;99.90;;;;;;5113847;28;20211;-85
2022/10/30 08:50:33;;;;;;;8.38;7.68;;;12.00;99.90;;;;;;5113424;28;20239;-86
2022/10/30 08:53:01;;;;;;;6.80;6.20;;;11.90;99.90;;;;;;5113845;28;20204;-86
2022/10/30 08:55:31;;;;;;;7.63;6.93;;;12.00;99.90;;;;;;5113678;28;20215;-87
2022/10/30 08:57:59;;;;;;;7.60;6.90;;;12.00;99.90;;;;;;5113530;28;20206;-86
2022/10/30 09:00:29;;;;;;;9.02;8.15;;;12.00;99.90;;;;;;5112929;28;20235;-85
2022/10/30 09:02:57;;;;;;;8.13;7.32;;;11.90;99.90;;;;;;5113605;28;20199;-85
2022/10/30 09:05:26;;;;;;;7.57;6.88;;;12.00;99.90;;;;;;5113294;28;20253;-85
2022/10/30 09:07:59;;;;;;;7.85;7.15;;;12.00;99.90;;;;;;5113662;28;20211;-86
2022/10/30 09:10:29;;;;;;;8.10;7.40;;;12.10;99.90;;;;;;5112892;28;20265;-86
2022/10/30 09:12:58;;;;;;;8.18;7.35;;;12.20;99.90;;;;;;5113431;28;20302;-86
2022/10/30 09:15:27;;;;;;;8.00;7.20;;;12.20;99.90;;;;;;5113498;28;20211;-86
2022/10/30 09:17:57;;;;;;;8.15;7.45;;;12.30;99.90;;;;;;5113299;28;20207;-86
2022/10/30 09:20:26;;;;;;;7.97;7.28;;;12.30;99.90;;;;;;5112990;28;20257;-88
2022/10/30 09:22:54;;;;;;;7.97;7.18;;;12.40;99.90;;;;;;5113370;28;20207;-86
2022/10/30 09:25:25;;;;;;;8.13;7.47;;;12.50;99.90;;;;;;5113303;28;20211;-86
2022/10/30 09:27:53;;;;;;;9.43;7.38;;;12.50;99.90;;;;;;5113547;28;20211;-86
2022/10/30 09:30:22;;;;;;;8.65;7.43;;;12.60;99.90;;;;;;5112245;28;20228;-86
2022/10/30 09:32:55;;;;;;;9.40;7.28;;;12.70;99.90;;;;;;5113192;28;20305;-86
2022/10/30 09:35:24;;;;;;;7.75;7.05;;;12.80;99.90;;;;;;5113410;28;20417;-87
2022/10/30 09:37:52;;;;;;;8.35;7.50;;;12.90;99.90;;;;;;5113225;28;20199;-86
2022/10/30 09:40:29;;;;;;;10.45;7.32;;;12.90;99.90;;;;;;5112270;28;20224;-86
2022/10/30 09:43:03;;;;;;;9.52;8.52;;;12.90;99.90;;;;;;5113279;28;20207;-87
2022/10/30 09:46:01;;;;;;;8.00;7.28;;;13.00;99.90;;;;;;5113395;28;20218;-87
2022/10/30 09:48:44;;;;;;;8.18;7.45;;;13.00;99.90;;;;;;5112550;28;20207;-87
2022/10/30 09:51:26;;;;;;;8.23;7.43;;;13.00;99.90;;;;;;5113043;28;20239;-87
2022/10/30 09:54:07;;;;;;;9.15;8.20;;;13.00;99.90;;;;;;5113252;28;20212;-87
2022/10/30 09:56:43;;;;;;;8.40;7.70;;;13.00;99.90;;;;;;5113143;28;20207;-87
2022/10/30 09:59:21;;;;;;;7.40;6.80;;;13.00;99.90;;;;;;5112125;28;20227;-87
2022/10/30 10:01:56;;;;;;;11.40;8.43;;;13.00;99.90;;;;;;5112762;28;20234;-86
2022/10/30 10:04:28;;;;;;;8.13;7.53;;;13.10;99.90;;;;;;5113188;28;20207;-87
2022/10/30 10:07:03;;;;;;;9.80;8.85;;;13.10;99.90;;;;;;5112785;28;20214;-87
2022/10/30 10:09:36;;;;;;;9.90;8.73;;;13.20;99.90;;;;;;5112422;28;20203;-86
2022/10/30 10:12:11;;;;;;;10.00;8.93;;;13.20;99.90;;;;;;5112546;28;20218;-87
2022/10/30 10:14:43;;;;;;;9.85;8.95;;;13.30;99.90;;;;;;5116085;28;20214;-87
2022/10/30 10:17:15;;;;;;;9.98;8.70;;;13.30;99.90;;;;;;5116637;28;20217;-87
2022/10/30 10:19:49;;;;;;;9.90;9.00;;;13.40;99.90;;;;;;5116232;28;20223;-87
2022/10/30 10:22:21;;;;;;;8.85;8.15;;;13.30;99.90;;;;;;5116573;28;20212;-86
2022/10/30 10:24:50;;;;;;;10.88;9.75;;;13.40;99.90;;;;;;5116744;28;20208;-86
2022/10/30 10:27:28;;;;;;;18.73;10.77;;;13.40;99.90;;;;;;5116297;28;20208;-86
2022/10/30 10:30:02;;;;;;;12.68;10.32;;;13.50;99.90;;;;;;5115786;28;20219;-87
2022/10/30 10:32:52;;;;;;;11.38;9.65;;;13.60;99.90;;;;;;5117247;28;20203;-87
2022/10/30 10:35:36;;;;;;;9.43;8.40;;;13.70;99.90;;;;;;5116864;28;20215;-86
2022/10/30 10:38:13;;;;;;;10.65;9.65;;;13.80;99.90;;;;;;5116385;28;20203;-88
2022/10/30 10:40:52;;;;;;;12.82;9.93;;;13.80;99.90;;;;;;5115671;28;20247;-86
2022/10/30 10:43:31;;;;;;;10.18;9.27;;;13.90;99.90;;;;;;5116372;28;20214;-86
2022/10/30 10:46:15;;;;;;;11.43;10.38;;;14.00;99.90;;;;;;5116601;28;20213;-86
2022/10/30 10:48:57;;;;;;;13.10;10.43;;;14.00;99.90;;;;;;5115556;28;20207;-86
2022/10/30 10:51:30;;;;;;;10.55;9.65;;;14.00;99.90;;;;;;5116115;28;20220;-87
2022/10/30 10:54:02;;;;;;;12.55;11.35;;;14.00;99.90;;;;;;5116239;28;20208;-85
2022/10/30 10:56:35;;;;;;;12.85;11.30;;;14.00;99.90;;;;;;5116286;28;20199;-86
2022/10/30 10:59:12;;;;;;;13.80;12.07;;;13.90;99.90;;;;;;5115086;28;20207;-86
2022/10/30 11:01:44;;;;;;;11.60;10.10;;;13.90;99.90;;;;;;5115841;28;20219;-86
2022/10/30 11:04:18;;;;;;;9.85;8.88;;;13.80;99.90;;;;;;5116020;28;20208;-86
2022/10/30 11:06:51;;;;;;;13.05;11.85;;;13.90;99.90;;;;;;5115409;28;20196;-86
2022/10/30 11:09:21;;;;;;;10.65;9.48;;;13.90;99.90;;;;;;5115230;28;20211;-86
2022/10/30 11:11:51;;;;;;;14.10;11.20;;;13.90;99.90;;;;;;5115591;28;20228;-87
2022/10/30 11:14:23;;;;;;;12.02;10.82;;;13.80;99.90;;;;;;5115813;28;20203;-86
2022/10/30 11:17:04;;;;;;;10.00;9.00;;;13.80;99.90;;;;;;5115548;28;20200;-86
2022/10/30 11:19:33;;;;;;;13.50;11.10;;;13.70;99.90;;;;;;5114964;28;20211;-87
2022/10/30 11:22:02;;;;;;;11.20;10.15;;;13.70;99.90;;;;;;5115416;28;20204;-86
2022/10/30 11:24:32;;;;;;;11.98;10.73;;;13.70;99.90;;;;;;5115625;28;20203;-86
2022/10/30 11:27:17;;;;;;;13.45;11.13;;;13.60;99.90;;;;;;5115643;28;20199;-87
2022/10/30 11:29:53;;;;;;;11.60;10.50;;;13.70;99.90;;;;;;5114669;28;20195;-87
2022/10/30 11:32:25;;;;;;;10.95;9.95;;;13.70;99.90;;;;;;5115304;28;20267;-86
2022/10/30 11:35:12;;;;;;;14.55;13.02;;;13.70;99.90;;;;;;5115422;28;20211;-86
2022/10/30 11:37:42;;;;;;;10.75;9.73;;;13.60;99.90;;;;;;5115803;28;20199;-87
2022/10/30 11:40:18;;;;;;;15.73;12.20;;;13.70;99.90;;;;;;5114518;28;20222;-87
2022/10/30 11:42:50;;;;;;;11.35;10.25;;;13.60;99.90;;;;;;5114886;28;20207;-87
2022/10/30 11:45:25;;;;;;;11.05;9.88;;;13.60;99.90;;;;;;5114955;28;20203;-86
2022/10/30 11:47:54;;;;;;;13.07;11.77;;;13.60;99.90;;;;;;5115425;28;20211;-86
2022/10/30 11:50:30;;;;;;;14.43;12.95;;;13.60;99.90;;;;;;5114477;28;20253;-86
2022/10/30 11:53:01;;;;;;;13.70;12.38;;;13.60;99.90;;;;;;5114949;28;20210;-87
2022/10/30 11:55:35;;;;;;;14.55;12.27;;;13.60;99.90;;;;;;5114833;28;20211;-86
2022/10/30 11:58:07;;;;;;;11.93;10.93;;;13.50;99.90;;;;;;5114468;28;20212;-86
2022/10/30 12:00:39;;;;;;;11.73;10.65;;;13.60;99.90;;;;;;5113959;28;20227;-87
2022/10/30 12:03:28;;;;;;;13.07;11.20;;;13.60;99.90;;;;;;5114766;28;20211;-87
2022/10/30 12:06:08;;;;;;;14.30;12.80;;;13.60;99.90;;;;;;5114691;28;20210;-86
2022/10/30 12:08:36;;;;;;;12.80;11.60;;;13.60;99.90;;;;;;5114372;28;20218;-87
2022/10/30 12:11:06;;;;;;;14.82;13.32;;;13.60;99.90;;;;;;5114754;28;20247;-87
2022/10/30 12:13:39;;;;;;;11.93;10.93;;;13.50;99.90;;;;;;5114439;28;20214;-86
2022/10/30 12:16:19;;;;;;;12.65;11.52;;;13.50;99.90;;;;;;5114635;28;20212;-86
2022/10/30 12:18:58;;;;;;;13.98;12.30;;;13.60;99.90;;;;;;5114963;28;20218;-87
2022/10/30 12:21:27;;;;;;;12.77;11.52;;;13.70;99.90;;;;;;5114726;28;20219;-87
2022/10/30 12:23:58;;;;;;;14.27;12.80;;;13.60;99.90;;;;;;5114323;28;20204;-86
2022/10/30 12:26:29;;;;;;;15.73;12.80;;;13.60;99.90;;;;;;5114042;28;20212;-87
2022/10/30 12:29:00;;;;;;;14.60;12.75;;;13.60;99.90;;;;;;5113582;28;20212;-87
2022/10/30 12:31:39;;;;;;;13.15;11.77;;;13.60;99.90;;;;;;5114328;28;20228;-87
2022/10/30 12:34:19;;;;;;;15.45;13.07;;;13.60;99.90;;;;;;5114101;28;20211;-87
2022/10/30 12:36:53;;;;;;;11.95;10.65;;;13.50;99.90;;;;;;5113350;28;20203;-87
2022/10/30 12:39:29;;;;;;;11.55;10.50;;;13.50;99.90;;;;;;5113628;28;20215;-87
2022/10/30 12:42:01;;;;;;;11.65;10.60;;;13.60;99.90;;;;;;5113629;28;20234;-86
2022/10/30 12:44:35;;;;;;;15.75;11.15;;;13.50;99.90;;;;;;5114214;28;20204;-87
2022/10/30 12:47:11;;;;;;;12.48;11.18;;;13.50;99.90;;;;;;5113836;28;20215;-87
2022/10/30 12:49:43;;;;;;;12.88;11.57;;;13.50;99.90;;;;;;5113050;28;20210;-87
2022/10/30 12:52:16;;;;;;;16.23;12.32;;;13.50;99.90;;;;;;5113751;28;20200;-87
2022/10/30 12:54:52;;;;;;;12.18;11.13;;;13.60;99.90;;;;;;5113891;28;20210;-87
2022/10/30 12:57:24;;;;;;;14.18;12.77;;;13.60;99.90;;;;;;5113683;28;20210;-86
2022/10/30 13:00:01;;;;;;;16.00;14.52;;;13.50;99.90;;;;;;5112756;28;20227;-87